createdAt,value
2022-08-23T06:14:06.239Z,9.60
2022-08-23T06:24:06.282Z,9.75
2022-08-23T06:34:06.271Z,8.88
2022-08-23T06:44:06.271Z,10.01
2022-08-23T06:54:06.162Z,16.89
2022-08-23T07:04:06.281Z,11.16
2022-08-23T07:14:06.334Z,7.20
2022-08-23T07:24:06.390Z,0.00
2022-08-23T07:34:06.235Z,0.00
2022-08-23T07:44:06.310Z,0.00
2022-08-23T07:54:06.285Z,0.00
2022-08-23T08:04:06.267Z,0.00
2022-08-23T08:14:06.219Z,0.00
2022-08-23T08:24:06.284Z,0.00
2022-08-23T08:34:06.439Z,0.00
2022-08-23T08:44:06.581Z,0.00
2022-08-23T08:54:06.492Z,0.00
2022-08-23T09:04:06.524Z,0.00
2022-08-23T09:14:06.399Z,0.00
2022-08-23T09:24:06.598Z,0.00
2022-08-23T09:34:06.753Z,0.00
2022-08-23T09:44:06.680Z,0.00
2022-08-23T09:54:06.542Z,0.00
2022-08-23T10:04:06.711Z,0.00
2022-08-23T10:14:06.484Z,0.00
2022-08-23T10:24:06.397Z,0.00
2022-08-23T10:34:06.441Z,0.00
2022-08-23T10:44:06.425Z,0.00
2022-08-23T10:54:06.495Z,0.00
2022-08-23T11:04:06.476Z,0.00
2022-08-23T11:14:06.560Z,0.00
2022-08-23T11:24:06.454Z,0.00
2022-08-23T11:34:06.524Z,0.00
2022-08-23T11:44:06.588Z,0.00
2022-08-23T11:54:06.423Z,0.00
2022-08-23T12:04:06.809Z,0.00
2022-08-23T12:14:06.618Z,0.00
2022-08-23T12:24:06.564Z,0.00
2022-08-23T12:34:06.664Z,0.00
2022-08-23T12:44:07.020Z,0.00
2022-08-23T12:54:07.127Z,0.00
2022-08-23T13:04:07.195Z,0.00
2022-08-23T13:14:07.201Z,0.00
2022-08-23T13:24:07.425Z,0.00
2022-08-23T13:34:07.501Z,0.00
2022-08-23T13:44:07.261Z,0.00
2022-08-23T13:54:07.242Z,0.00
2022-08-23T14:04:07.814Z,0.00
2022-08-23T14:14:07.518Z,0.00
2022-08-23T14:24:07.220Z,0.00
2022-08-23T14:34:07.602Z,0.00
2022-08-23T14:44:07.299Z,0.00
2022-08-23T14:54:07.219Z,0.00
2022-08-23T15:04:07.327Z,0.00
2022-08-23T15:14:07.304Z,0.00
2022-08-23T15:24:07.468Z,0.00
2022-08-23T15:34:07.397Z,0.00
2022-08-23T15:44:07.503Z,0.00
2022-08-23T15:54:07.590Z,0.00
2022-08-23T16:04:07.374Z,0.00
2022-08-23T16:14:07.568Z,0.00
2022-08-23T16:24:07.416Z,0.00
2022-08-23T16:34:07.575Z,0.00
2022-08-23T16:44:07.457Z,0.00
2022-08-23T16:54:07.439Z,0.00
2022-08-23T17:04:07.454Z,0.00
2022-08-23T17:14:07.472Z,0.00
2022-08-23T17:24:07.575Z,0.00
2022-08-23T17:34:07.511Z,0.00
2022-08-23T17:44:07.451Z,0.00
2022-08-23T17:54:07.560Z,0.00
2022-08-23T18:04:07.634Z,0.00
2022-08-23T18:14:07.591Z,0.00
2022-08-23T18:24:07.613Z,2.28
2022-08-23T18:34:07.747Z,6.46
2022-08-23T18:44:07.451Z,7.86
2022-08-23T18:54:07.621Z,7.38
2022-08-23T19:04:07.690Z,7.44
2022-08-23T19:14:07.801Z,7.83
